Masset, Canada
Current Conditions -  °F | °C
As of 6:00 PM on Friday 21 Nov 2014 (Local Time) from CZMT Reporting Station
Rain Showers Rain Showers  
Wind Chill: 39°   Ceiling: Unl
Heat Index: 39°   Visibility: 15mi
Dew Point: 39°   Wind: 3mph
Humidity: 100%   Direction: 180°S
Pressure: 29.27"   Gusts: NA
Location:  54.02°N, 132.15°W
Report Text: CZMT 220200Z 18003KT 170V240 15SM -SHRA FEW005 FEW012TCU 04/04 A2927 RMK CF1TCU2 CF TR LAST OBS/NEXT 221500 UTC SLP911
Loading
Personal Weather Stations






























Interactive Weather Map New forecast layout! Learn more

10-Day Weather Forecast

Advertisements
Track Severe Weather on mobile